createdAt,value
2019-03-28T00:01:49.925Z,8.49
2019-03-28T00:04:21.198Z,8.48
2019-03-28T00:06:52.205Z,8.46
2019-03-28T00:09:23.250Z,8.61
2019-03-28T00:11:54.267Z,8.55
2019-03-28T00:14:25.255Z,8.54
2019-03-28T00:16:56.229Z,8.53
2019-03-28T00:19:27.258Z,8.55
2019-03-28T00:21:58.442Z,8.59
2019-03-28T00:24:37.281Z,8.65
2019-03-28T00:27:08.263Z,8.64
2019-03-28T00:29:39.294Z,8.62
2019-03-28T00:32:11.042Z,8.59
2019-03-28T00:34:42.014Z,8.63
2019-03-28T00:37:13.789Z,8.57
2019-03-28T00:39:45.205Z,8.51
2019-03-28T00:42:16.226Z,8.51
2019-03-28T00:44:47.201Z,8.48
2019-03-28T00:47:18.536Z,8.41
2019-03-28T00:49:49.537Z,8.41
2019-03-28T00:52:20.543Z,8.44
2019-03-28T00:54:51.518Z,8.34
2019-03-28T00:57:22.647Z,8.37
2019-03-28T00:59:53.612Z,8.39
2019-03-28T01:02:24.637Z,8.36
2019-03-28T01:04:55.658Z,8.36
2019-03-28T01:07:26.634Z,8.31
2019-03-28T01:09:57.665Z,8.31
2019-03-28T01:12:28.686Z,8.34
2019-03-28T01:14:59.660Z,8.30
2019-03-28T01:17:30.793Z,8.28
2019-03-28T01:20:01.789Z,8.27
2019-03-28T01:22:32.760Z,8.35
2019-03-28T01:25:03.783Z,8.38
2019-03-28T01:27:34.781Z,8.38
2019-03-28T01:30:06.828Z,8.33
2019-03-28T01:32:37.827Z,8.31
2019-03-28T01:35:09.055Z,8.28
2019-03-28T01:37:40.082Z,8.28
2019-03-28T01:40:11.043Z,8.25
2019-03-28T01:42:42.410Z,8.27
2019-03-28T01:45:13.977Z,8.33
2019-03-28T01:47:44.994Z,8.33
2019-03-28T01:50:15.966Z,8.31
2019-03-28T01:52:47.347Z,8.28
2019-03-28T01:55:18.617Z,8.25
2019-03-28T01:57:49.606Z,8.18
2019-03-28T02:00:20.583Z,8.14
2019-03-28T02:02:51.606Z,8.14
2019-03-28T02:05:22.672Z,8.15
2019-03-28T02:07:53.646Z,8.13
2019-03-28T02:10:31.886Z,8.22
2019-03-28T02:13:02.876Z,8.15
2019-03-28T02:15:33.892Z,8.16
2019-03-28T02:18:05.094Z,8.20
2019-03-28T02:20:36.483Z,8.23
2019-03-28T02:23:07.466Z,8.31
2019-03-28T02:25:38.588Z,8.33
2019-03-28T02:28:09.985Z,8.27
2019-03-28T02:30:41.004Z,8.27
2019-03-28T02:33:12.086Z,8.21
2019-03-28T02:35:43.127Z,8.23
2019-03-28T02:38:14.157Z,8.23
2019-03-28T02:40:46.116Z,8.22
2019-03-28T02:43:17.104Z,8.21
2019-03-28T02:45:48.195Z,8.19
2019-03-28T02:48:19.369Z,8.13
2019-03-28T02:50:50.356Z,8.06
2019-03-28T02:53:21.466Z,8.03
2019-03-28T02:55:52.451Z,8.06
2019-03-28T02:58:23.636Z,8.04
2019-03-28T03:00:55.497Z,8.02
2019-03-28T03:03:27.524Z,8.05
2019-03-28T03:05:59.870Z,8.04
2019-03-28T03:08:30.860Z,8.01
2019-03-28T03:11:02.390Z,7.99
2019-03-28T03:13:34.002Z,7.97
2019-03-28T03:16:05.036Z,7.99
2019-03-28T03:18:36.418Z,7.95
2019-03-28T03:21:07.451Z,7.93
2019-03-28T03:23:38.813Z,8.00
2019-03-28T03:26:11.075Z,7.96
2019-03-28T03:28:42.995Z,7.94
2019-03-28T03:31:20.287Z,7.94
2019-03-28T03:33:46.665Z,7.94
2019-03-28T03:36:17.733Z,7.96
2019-03-28T03:38:48.722Z,7.98
2019-03-28T03:41:19.747Z,7.97
2019-03-28T03:43:51.047Z,7.93
2019-03-28T03:46:22.458Z,7.95
2019-03-28T03:48:53.486Z,7.91
2019-03-28T03:51:24.470Z,7.88
2019-03-28T03:53:55.483Z,7.86
2019-03-28T03:56:26.502Z,7.81
2019-03-28T03:58:57.823Z,7.82
2019-03-28T04:01:29.077Z,7.78
2019-03-28T04:04:00.087Z,7.78
2019-03-28T04:06:31.071Z,7.78
2019-03-28T04:09:02.054Z,7.79
2019-03-28T04:11:33.450Z,7.79
2019-03-28T04:14:04.547Z,7.79
2019-03-28T04:16:35.580Z,7.77
2019-03-28T04:19:06.900Z,7.83
2019-03-28T04:21:37.992Z,7.80
2019-03-28T04:24:09.658Z,7.77
2019-03-28T04:26:40.675Z,7.80
2019-03-28T04:29:11.796Z,7.86
2019-03-28T04:31:43.142Z,7.83
2019-03-28T04:34:14.122Z,7.83
2019-03-28T04:36:45.110Z,7.87
2019-03-28T04:39:16.652Z,7.81
2019-03-28T04:41:48.230Z,7.83
2019-03-28T04:44:19.579Z,7.81
2019-03-28T04:46:50.617Z,7.78
2019-03-28T04:49:21.607Z,7.78
2019-03-28T04:51:53.397Z,7.83
2019-03-28T04:54:24.470Z,7.82
2019-03-28T04:56:55.822Z,7.76
2019-03-28T04:59:26.835Z,7.74
2019-03-28T05:02:02.930Z,7.81
2019-03-28T05:04:30.577Z,7.80
2019-03-28T05:07:01.552Z,7.85
2019-03-28T05:09:32.557Z,7.77
2019-03-28T05:12:03.627Z,7.75
2019-03-28T05:14:34.609Z,7.78
2019-03-28T05:17:05.638Z,7.73
2019-03-28T05:19:36.623Z,7.73
2019-03-28T05:22:08.201Z,7.72
2019-03-28T05:24:39.207Z,7.73
2019-03-28T05:27:10.200Z,7.71
2019-03-28T05:29:41.319Z,7.72
2019-03-28T05:32:12.417Z,7.71
2019-03-28T05:34:43.405Z,7.72
2019-03-28T05:37:14.410Z,7.70
2019-03-28T05:39:45.536Z,7.68
2019-03-28T05:42:16.859Z,7.68
2019-03-28T05:44:48.278Z,7.71
2019-03-28T05:47:21.938Z,7.73
2019-03-28T05:49:51.934Z,7.73
2019-03-28T05:52:22.957Z,7.75
2019-03-28T05:54:53.938Z,7.78
2019-03-28T05:57:25.132Z,7.78
2019-03-28T05:59:56.109Z,7.79
2019-03-28T06:02:27.522Z,7.81
2019-03-28T06:04:58.950Z,7.88
2019-03-28T06:07:29.937Z,7.91
2019-03-28T06:10:01.311Z,7.92
2019-03-28T06:12:32.356Z,7.95
2019-03-28T06:15:03.333Z,8.02
2019-03-28T06:17:34.646Z,8.05
2019-03-28T06:20:06.999Z,8.06
2019-03-28T06:22:37.978Z,8.08
2019-03-28T06:25:09.469Z,8.11
2019-03-28T06:27:40.467Z,8.18
2019-03-28T06:30:11.742Z,8.28
2019-03-28T06:32:43.650Z,8.36
2019-03-28T06:35:14.663Z,8.31
2019-03-28T06:37:45.672Z,8.38
2019-03-28T06:40:16.701Z,8.42
2019-03-28T06:42:48.358Z,8.47
2019-03-28T06:45:19.350Z,8.49
2019-03-28T06:47:50.359Z,8.45
2019-03-28T06:50:21.738Z,8.65
2019-03-28T06:52:52.759Z,8.73
2019-03-28T06:55:24.220Z,8.81
2019-03-28T06:57:55.605Z,8.75
2019-03-28T07:00:26.662Z,8.87
2019-03-28T07:02:57.997Z,8.90
2019-03-28T07:05:29.071Z,8.95
2019-03-28T07:08:00.051Z,8.98
2019-03-28T07:10:31.083Z,9.01
2019-03-28T07:13:02.073Z,9.05
2019-03-28T07:15:33.057Z,9.02
2019-03-28T07:18:04.079Z,9.10
2019-03-28T07:20:35.062Z,9.15
2019-03-28T07:23:06.054Z,9.22
2019-03-28T07:25:37.062Z,9.26
2019-03-28T07:28:08.190Z,9.27
2019-03-28T07:30:39.519Z,9.30
2019-03-28T07:33:10.507Z,9.24
2019-03-28T07:35:41.928Z,9.26
2019-03-28T07:38:12.910Z,9.27
2019-03-28T07:40:43.899Z,9.35
2019-03-28T07:43:14.930Z,9.46
2019-03-28T07:45:45.907Z,9.41
2019-03-28T07:48:16.956Z,9.49
2019-03-28T07:50:47.969Z,9.60
2019-03-28T07:53:19.979Z,9.48
2019-03-28T07:55:51.494Z,9.58
2019-03-28T07:58:22.486Z,9.70
2019-03-28T08:00:53.513Z,9.58
2019-03-28T08:03:24.974Z,9.51
2019-03-28T08:05:55.956Z,9.43
2019-03-28T08:08:38.251Z,9.46
2019-03-28T08:10:59.660Z,9.67
2019-03-28T08:13:31.051Z,9.76
2019-03-28T08:16:03.269Z,9.97
2019-03-28T08:18:34.351Z,10.15
2019-03-28T08:21:05.385Z,10.26
2019-03-28T08:23:36.405Z,10.37
2019-03-28T08:26:07.500Z,10.53
2019-03-28T08:28:38.823Z,10.71
2019-03-28T08:31:09.818Z,10.63
2019-03-28T08:33:43.315Z,10.80
2019-03-28T08:36:16.280Z,10.91
2019-03-28T08:38:49.789Z,10.95
2019-03-28T08:41:21.454Z,10.94
2019-03-28T08:43:52.555Z,10.83
2019-03-28T08:46:23.577Z,10.91
2019-03-28T08:48:54.671Z,11.13
2019-03-28T08:51:27.529Z,11.26
2019-03-28T08:53:58.521Z,11.52
2019-03-28T08:56:29.625Z,11.77
2019-03-28T08:59:01.054Z,12.23
2019-03-28T09:01:32.050Z,12.49
2019-03-28T09:04:03.199Z,12.41
2019-03-28T09:06:34.293Z,12.51
2019-03-28T09:09:07.262Z,12.65
2019-03-28T09:11:38.770Z,12.59
2019-03-28T09:14:09.762Z,12.65
2019-03-28T09:16:40.852Z,12.86
2019-03-28T09:19:11.886Z,12.92
2019-03-28T09:21:44.143Z,12.81
2019-03-28T09:24:15.490Z,12.88
2019-03-28T09:26:46.509Z,13.00
2019-03-28T09:29:17.821Z,13.13
2019-03-28T09:31:48.910Z,13.27
2019-03-28T09:34:19.956Z,13.59
2019-03-28T09:36:50.937Z,13.69
2019-03-28T09:39:24.707Z,13.78
2019-03-28T09:41:54.714Z,13.77
2019-03-28T09:44:25.689Z,13.87
2019-03-28T09:46:56.711Z,13.80
2019-03-28T09:49:27.694Z,14.03
2019-03-28T09:51:58.681Z,14.33
2019-03-28T09:54:29.686Z,14.26
2019-03-28T09:57:00.726Z,14.29
2019-03-28T09:59:31.770Z,14.41
2019-03-28T10:02:03.050Z,14.56
2019-03-28T10:04:34.094Z,14.79
2019-03-28T10:07:05.674Z,15.07
2019-03-28T10:09:38.008Z,15.02
2019-03-28T10:12:09.205Z,14.94
2019-03-28T10:14:40.498Z,15.08
2019-03-28T10:17:11.841Z,14.98
2019-03-28T10:19:43.268Z,14.99
2019-03-28T10:22:14.266Z,14.92
2019-03-28T10:24:45.527Z,14.92
2019-03-28T10:27:19.184Z,14.93
2019-03-28T10:29:49.574Z,14.93
2019-03-28T10:32:20.600Z,14.85
2019-03-28T10:34:51.615Z,14.85
2019-03-28T10:37:22.593Z,14.75
2019-03-28T10:39:53.589Z,14.77
2019-03-28T10:42:24.621Z,14.45
2019-03-28T10:44:55.656Z,14.36
2019-03-28T10:47:27.301Z,14.43
2019-03-28T10:49:59.476Z,14.35
2019-03-28T10:52:30.481Z,14.37
2019-03-28T10:55:01.458Z,14.74
2019-03-28T10:57:32.618Z,14.63
2019-03-28T11:00:04.000Z,14.56
2019-03-28T11:02:35.344Z,14.50
2019-03-28T11:05:06.789Z,14.26
2019-03-28T11:07:38.141Z,14.10
2019-03-28T11:10:09.188Z,13.98
2019-03-28T11:12:40.163Z,13.81
2019-03-28T11:15:11.451Z,13.79
2019-03-28T11:17:42.456Z,13.73
2019-03-28T11:20:13.432Z,13.67
2019-03-28T11:22:44.734Z,13.84
2019-03-28T11:25:15.709Z,14.12
2019-03-28T11:27:47.112Z,14.07
2019-03-28T11:30:19.438Z,13.96
2019-03-28T11:32:50.413Z,13.79
2019-03-28T11:35:21.818Z,13.67
2019-03-28T11:37:53.208Z,13.76
2019-03-28T11:40:24.621Z,14.07
2019-03-28T11:42:55.677Z,14.43
2019-03-28T11:45:27.271Z,14.43
2019-03-28T11:47:58.249Z,14.08
2019-03-28T11:50:29.225Z,14.37
2019-03-28T11:53:00.229Z,14.85
2019-03-28T11:55:31.210Z,15.05
2019-03-28T11:58:02.233Z,14.92
2019-03-28T12:00:33.213Z,14.78
2019-03-28T12:03:04.191Z,14.57
2019-03-28T12:05:35.237Z,14.19
2019-03-28T12:08:06.235Z,13.87
2019-03-28T12:10:37.204Z,13.76
2019-03-28T12:13:08.204Z,13.60
2019-03-28T12:15:39.197Z,13.53
2019-03-28T12:18:10.198Z,13.46
2019-03-28T12:20:41.559Z,13.34
2019-03-28T12:23:12.937Z,13.41
2019-03-28T12:25:47.159Z,13.31
2019-03-28T12:28:16.763Z,13.40
2019-03-28T12:30:47.750Z,13.44
2019-03-28T12:33:18.737Z,13.37
2019-03-28T12:35:50.098Z,13.39
2019-03-28T12:38:21.453Z,13.50
2019-03-28T12:40:52.956Z,13.45
2019-03-28T12:43:23.988Z,13.46
2019-03-28T12:45:54.993Z,13.42
2019-03-28T12:48:25.977Z,13.43
2019-03-28T12:50:59.132Z,13.45
2019-03-28T12:53:30.217Z,13.51
2019-03-28T12:56:01.577Z,13.46
2019-03-28T12:58:32.540Z,13.45
2019-03-28T13:01:03.533Z,13.44
2019-03-28T13:03:44.775Z,13.27
2019-03-28T13:06:07.250Z,13.29
2019-03-28T13:08:38.221Z,13.34
2019-03-28T13:11:09.262Z,13.21
2019-03-28T13:13:40.233Z,13.23
2019-03-28T13:16:11.610Z,13.25
2019-03-28T13:18:43.819Z,13.31
2019-03-28T13:21:14.794Z,13.17
2019-03-28T13:23:45.765Z,13.21
2019-03-28T13:26:17.149Z,13.20
2019-03-28T13:28:48.143Z,13.22
2019-03-28T13:31:19.185Z,13.15
2019-03-28T13:33:50.162Z,13.14
2019-03-28T13:36:22.104Z,13.09
2019-03-28T13:38:54.517Z,13.05
2019-03-28T13:41:25.501Z,13.00
2019-03-28T13:43:56.754Z,12.88
2019-03-28T13:46:27.981Z,12.96
2019-03-28T13:48:58.967Z,13.06
2019-03-28T13:51:29.946Z,13.07
2019-03-28T13:54:00.978Z,13.07
2019-03-28T13:56:31.981Z,13.09
2019-03-28T13:59:02.961Z,13.14
2019-03-28T14:01:33.961Z,13.12
2019-03-28T14:04:04.973Z,13.17
2019-03-28T14:06:35.961Z,13.27
2019-03-28T14:09:07.850Z,13.18
2019-03-28T14:11:39.486Z,13.17
2019-03-28T14:14:11.037Z,13.17
2019-03-28T14:16:42.394Z,13.18
2019-03-28T14:19:13.417Z,13.20
2019-03-28T14:21:44.692Z,13.05
2019-03-28T14:24:15.674Z,13.06
2019-03-28T14:26:46.706Z,13.12
2019-03-28T14:29:17.683Z,13.02
2019-03-28T14:31:48.705Z,13.03
2019-03-28T14:34:19.702Z,13.05
2019-03-28T14:36:50.679Z,13.07
2019-03-28T14:39:21.766Z,12.99
2019-03-28T14:41:53.132Z,13.03
2019-03-28T14:44:24.117Z,13.14
2019-03-28T14:46:55.127Z,13.22
2019-03-28T14:49:26.887Z,13.20
2019-03-28T14:51:57.896Z,13.21
2019-03-28T14:54:28.887Z,13.20
2019-03-28T14:57:00.962Z,13.35
2019-03-28T14:59:34.567Z,13.38
2019-03-28T15:02:05.673Z,13.41
2019-03-28T15:04:36.650Z,13.24
2019-03-28T15:07:08.068Z,13.30
2019-03-28T15:09:39.132Z,13.30
2019-03-28T15:12:10.989Z,13.35
2019-03-28T15:14:41.982Z,13.30
2019-03-28T15:17:12.964Z,13.29
2019-03-28T15:19:44.690Z,13.34
2019-03-28T15:22:15.694Z,13.27
2019-03-28T15:24:46.665Z,13.25
2019-03-28T15:27:17.705Z,13.23
2019-03-28T15:29:48.679Z,13.18
2019-03-28T15:32:19.650Z,13.10
2019-03-28T15:34:50.960Z,12.94
2019-03-28T15:37:22.210Z,12.92
2019-03-28T15:39:53.863Z,12.81
2019-03-28T15:42:27.793Z,12.77
2019-03-28T15:44:58.155Z,12.62
2019-03-28T15:47:29.198Z,12.59
2019-03-28T15:50:00.557Z,12.71
2019-03-28T15:52:31.960Z,12.70
2019-03-28T15:55:04.319Z,12.62
2019-03-28T15:57:35.306Z,12.58
2019-03-28T16:00:07.749Z,12.58
2019-03-28T16:02:38.776Z,12.56
2019-03-28T16:05:10.191Z,12.53
2019-03-28T16:07:41.187Z,12.63
2019-03-28T16:10:14.756Z,12.65
2019-03-28T16:12:45.669Z,12.63
2019-03-28T16:15:16.759Z,12.56
2019-03-28T16:17:47.836Z,12.58
2019-03-28T16:20:19.194Z,12.61
2019-03-28T16:22:50.543Z,12.57
2019-03-28T16:25:21.894Z,12.53
2019-03-28T16:27:53.278Z,12.51
2019-03-28T16:30:36.262Z,12.44
2019-03-28T16:33:08.110Z,12.44
2019-03-28T16:35:40.195Z,12.41
2019-03-28T16:38:11.186Z,12.35
2019-03-28T16:40:42.662Z,12.29
2019-03-28T16:43:14.041Z,12.32
2019-03-28T16:45:45.032Z,12.30
2019-03-28T16:48:16.043Z,12.29
2019-03-28T16:50:47.373Z,12.33
2019-03-28T16:53:18.725Z,12.38
2019-03-28T16:55:50.079Z,12.30
2019-03-28T16:58:21.131Z,12.24
2019-03-28T17:00:52.475Z,12.30
2019-03-28T17:03:23.926Z,12.30
2019-03-28T17:05:56.144Z,12.18
2019-03-28T17:08:29.215Z,12.13
2019-03-28T17:11:00.216Z,12.13
2019-03-28T17:13:31.241Z,12.12
2019-03-28T17:16:02.640Z,12.06
2019-03-28T17:18:33.688Z,12.04
2019-03-28T17:21:04.945Z,12.01
2019-03-28T17:23:36.270Z,12.02
2019-03-28T17:26:07.276Z,12.04
2019-03-28T17:28:38.285Z,12.01
2019-03-28T17:31:09.299Z,11.95
2019-03-28T17:33:40.286Z,11.92
2019-03-28T17:36:11.689Z,11.97
2019-03-28T17:38:42.684Z,11.92
2019-03-28T17:41:14.071Z,11.92
2019-03-28T17:43:45.086Z,11.87
2019-03-28T17:46:16.174Z,11.86
2019-03-28T17:48:47.522Z,11.82
2019-03-28T17:51:18.531Z,11.82
2019-03-28T17:53:49.558Z,11.80
2019-03-28T17:56:21.710Z,11.83
2019-03-28T17:58:55.619Z,11.78
2019-03-28T18:01:26.711Z,11.80
2019-03-28T18:03:58.738Z,11.79
2019-03-28T18:06:30.151Z,11.75
2019-03-28T18:09:03.174Z,11.72
2019-03-28T18:11:34.439Z,11.68
2019-03-28T18:14:05.739Z,11.61
2019-03-28T18:16:36.915Z,11.65
2019-03-28T18:19:08.403Z,11.57
2019-03-28T18:21:39.510Z,11.52
2019-03-28T18:24:11.055Z,11.51
2019-03-28T18:26:42.633Z,11.48
2019-03-28T18:29:14.600Z,11.45
2019-03-28T18:31:50.858Z,11.40
2019-03-28T18:34:18.935Z,11.41
2019-03-28T18:36:50.906Z,11.37
2019-03-28T18:39:22.192Z,11.38
2019-03-28T18:41:56.543Z,11.38
2019-03-28T18:44:26.718Z,11.36
2019-03-28T18:46:57.710Z,11.33
2019-03-28T18:49:28.902Z,11.31
2019-03-28T18:51:59.964Z,11.27
2019-03-28T18:54:31.061Z,11.31
2019-03-28T18:57:03.617Z,11.32
2019-03-28T18:59:34.609Z,11.29
2019-03-28T19:02:06.007Z,11.30
2019-03-28T19:04:37.394Z,11.25
2019-03-28T19:07:14.007Z,11.23
2019-03-28T19:09:45.945Z,11.21
2019-03-28T19:12:20.111Z,11.20
2019-03-28T19:14:52.530Z,11.17
2019-03-28T19:17:24.009Z,11.14
2019-03-28T19:19:55.406Z,11.16
2019-03-28T19:22:26.400Z,11.18
2019-03-28T19:24:57.427Z,11.18
2019-03-28T19:27:30.312Z,11.18
2019-03-28T19:30:02.122Z,11.18
2019-03-28T19:32:35.771Z,11.17
2019-03-28T19:35:08.420Z,11.15
2019-03-28T19:37:40.754Z,11.11
2019-03-28T19:40:12.604Z,11.08
2019-03-28T19:42:44.090Z,11.08
2019-03-28T19:45:19.359Z,11.09
2019-03-28T19:47:50.441Z,11.09
2019-03-28T19:50:29.585Z,11.07
2019-03-28T19:53:00.631Z,11.05
2019-03-28T19:55:32.183Z,11.01
2019-03-28T19:58:03.315Z,10.96
2019-03-28T20:00:34.451Z,10.97
2019-03-28T20:03:07.966Z,10.96
2019-03-28T20:05:47.683Z,10.93
2019-03-28T20:08:15.894Z,10.93
2019-03-28T20:10:45.007Z,10.90
2019-03-28T20:13:16.249Z,10.88
2019-03-28T20:15:47.303Z,10.84
2019-03-28T20:18:18.296Z,10.85
2019-03-28T20:20:49.387Z,10.81
2019-03-28T20:23:20.723Z,10.78
2019-03-28T20:25:52.792Z,10.78
2019-03-28T20:28:26.804Z,10.80
2019-03-28T20:30:57.162Z,10.75
2019-03-28T20:33:28.509Z,10.72
2019-03-28T20:36:18.902Z,10.71
2019-03-28T20:38:32.757Z,10.72
2019-03-28T20:41:05.812Z,10.70
2019-03-28T20:43:36.795Z,10.67
2019-03-28T20:46:08.545Z,10.64
2019-03-28T20:48:40.010Z,10.61
2019-03-28T20:51:11.279Z,10.61
2019-03-28T20:53:42.703Z,10.60
2019-03-28T20:56:14.872Z,10.60
2019-03-28T20:58:45.907Z,10.64
2019-03-28T21:01:17.783Z,10.67
2019-03-28T21:03:49.759Z,10.63
2019-03-28T21:06:21.435Z,10.61
2019-03-28T21:08:52.802Z,10.59
2019-03-28T21:11:23.817Z,10.55
2019-03-28T21:13:54.820Z,10.56
2019-03-28T21:16:26.239Z,10.54
2019-03-28T21:18:57.260Z,10.59
2019-03-28T21:21:29.101Z,10.59
2019-03-28T21:24:00.781Z,10.53
2019-03-28T21:26:31.791Z,10.53
2019-03-28T21:29:02.830Z,10.53
2019-03-28T21:31:33.827Z,10.53
2019-03-28T21:34:04.866Z,10.54
2019-03-28T21:36:36.271Z,10.49
2019-03-28T21:39:09.038Z,10.48
2019-03-28T21:41:40.363Z,10.46
2019-03-28T21:44:11.757Z,10.43
2019-03-28T21:46:42.812Z,10.40
2019-03-28T21:49:13.816Z,10.40
2019-03-28T21:51:45.973Z,10.39
2019-03-28T21:54:17.137Z,10.37
2019-03-28T21:56:48.301Z,10.39
2019-03-28T21:59:19.311Z,10.38
2019-03-28T22:01:50.312Z,10.38
2019-03-28T22:04:21.336Z,10.40
2019-03-28T22:06:52.727Z,10.36
2019-03-28T22:09:24.869Z,10.35
2019-03-28T22:12:00.623Z,10.34
2019-03-28T22:14:31.045Z,10.34
2019-03-28T22:17:02.952Z,10.29
2019-03-28T22:19:34.100Z,10.31
2019-03-28T22:22:05.195Z,10.34
2019-03-28T22:24:39.028Z,10.37
2019-03-28T22:27:09.144Z,10.40
2019-03-28T22:29:40.122Z,10.40
2019-03-28T22:32:11.848Z,10.39
2019-03-28T22:34:43.374Z,10.39
2019-03-28T22:37:14.367Z,10.41
2019-03-28T22:39:45.410Z,10.47
2019-03-28T22:42:16.391Z,10.43
2019-03-28T22:44:47.763Z,10.50
2019-03-28T22:47:18.790Z,10.42
2019-03-28T22:49:50.168Z,10.39
2019-03-28T22:52:21.498Z,10.47
2019-03-28T22:54:52.591Z,10.43
2019-03-28T22:57:23.623Z,10.40
2019-03-28T22:59:54.618Z,10.35
2019-03-28T23:02:25.610Z,10.32
2019-03-28T23:04:57.030Z,10.31
2019-03-28T23:07:28.015Z,10.30
2019-03-28T23:09:58.999Z,10.28
2019-03-28T23:12:30.020Z,10.28
2019-03-28T23:15:01.021Z,10.30
2019-03-28T23:17:32.538Z,10.28
2019-03-28T23:20:03.529Z,10.30
2019-03-28T23:22:34.513Z,10.34
2019-03-28T23:25:06.507Z,10.41
2019-03-28T23:27:37.492Z,10.39
2019-03-28T23:30:09.439Z,10.35
2019-03-28T23:32:40.803Z,10.32
2019-03-28T23:35:12.746Z,10.30
2019-03-28T23:37:43.894Z,10.26
2019-03-28T23:40:15.049Z,10.25
2019-03-28T23:42:46.320Z,10.21
2019-03-28T23:45:17.308Z,10.17
2019-03-28T23:47:48.377Z,10.13
2019-03-28T23:50:19.390Z,10.10
2019-03-28T23:52:50.479Z,10.07
2019-03-28T23:55:21.792Z,10.05
2019-03-28T23:57:52.782Z,10.04
